createdAt,value
2018-11-20T00:03:47.667Z,-0.90
2018-11-20T00:07:11.739Z,-0.80
2018-11-20T00:14:02.774Z,-1.00
2018-11-20T00:20:58.903Z,-1.10
2018-11-20T00:24:22.661Z,-1.20
2018-11-20T00:31:12.119Z,-1.20
2018-11-20T00:38:18.096Z,-1.30
2018-11-20T00:41:06.584Z,-1.30
2018-11-20T00:47:55.417Z,-1.30
2018-11-20T00:54:45.150Z,-1.20
2018-11-20T01:01:54.882Z,-1.10
2018-11-20T01:04:59.429Z,-1.00
2018-11-20T01:12:08.777Z,-0.90
2018-11-20T01:15:03.642Z,-0.80
2018-11-20T01:17:49.616Z,-0.80
2018-11-20T01:20:38.739Z,-0.70
2018-11-20T01:23:33.203Z,-0.80
2018-11-20T01:26:19.038Z,-0.80
2018-11-20T01:29:09.037Z,-1.00
2018-11-20T01:32:04.973Z,-1.10
2018-11-20T01:35:02.645Z,-1.20
2018-11-20T01:37:51.426Z,-1.20
2018-11-20T01:40:31.608Z,-1.20
2018-11-20T01:43:38.503Z,-1.30
2018-11-20T01:46:21.077Z,-1.30
2018-11-20T01:49:28.328Z,-1.40
2018-11-20T01:52:19.273Z,-1.30
2018-11-20T01:55:04.437Z,-1.10
2018-11-20T01:57:58.618Z,-1.00
2018-11-20T02:00:54.577Z,-1.10
2018-11-20T02:03:51.897Z,-1.00
2018-11-20T02:07:14.501Z,-1.10
2018-11-20T02:10:23.368Z,-1.00
2018-11-20T02:17:14.326Z,-0.80
2018-11-20T02:20:38.296Z,-0.90
2018-11-20T02:27:27.997Z,-0.60
2018-11-20T02:34:17.738Z,-0.40
2018-11-20T02:40:59.668Z,-0.40
2018-11-20T02:47:45.085Z,-0.40
2018-11-20T02:54:52.897Z,-0.40
2018-11-20T03:01:38.127Z,-0.20
2018-11-20T03:08:32.643Z,-0.30
2018-11-20T03:15:26.443Z,-0.20
2018-11-20T03:22:26.639Z,-0.10
2018-11-20T03:29:30.476Z,0.00
2018-11-20T03:32:18.360Z,0.00
2018-11-20T03:35:42.753Z,0.00
2018-11-20T03:42:33.273Z,0.00
2018-11-20T03:45:35.773Z,0.00
2018-11-20T03:52:35.115Z,0.10
2018-11-20T03:55:59.238Z,0.10
2018-11-20T04:02:52.492Z,0.20
2018-11-20T04:09:34.193Z,0.30
2018-11-20T04:16:33.788Z,0.30
2018-11-20T04:19:21.273Z,0.10
2018-11-20T04:22:04.173Z,0.10
2018-11-20T04:29:09.167Z,0.20
2018-11-20T04:36:05.007Z,0.40
2018-11-20T04:38:59.601Z,0.50
2018-11-20T04:41:48.273Z,0.50
2018-11-20T04:44:40.121Z,0.50
2018-11-20T04:47:28.137Z,0.50
2018-11-20T04:50:19.967Z,0.50
2018-11-20T04:53:08.724Z,0.60
2018-11-20T04:56:06.258Z,0.60
2018-11-20T04:59:07.199Z,0.50
2018-11-20T05:01:58.326Z,0.60
2018-11-20T05:05:19.903Z,0.60
2018-11-20T05:12:09.601Z,0.60
2018-11-20T05:18:58.543Z,0.70
2018-11-20T05:25:53.033Z,0.60
2018-11-20T05:29:14.550Z,0.50
2018-11-20T05:36:19.516Z,0.70
2018-11-20T05:38:56.225Z,0.70
2018-11-20T05:45:45.230Z,0.70
2018-11-20T05:52:38.266Z,0.80
2018-11-20T05:59:27.106Z,0.80
2018-11-20T06:03:05.734Z,0.80
2018-11-20T06:10:30.715Z,0.90
2018-11-20T06:13:18.336Z,0.90
2018-11-20T06:20:13.846Z,0.90
2018-11-20T06:22:57.759Z,1.00
2018-11-20T06:26:21.405Z,1.00
2018-11-20T06:33:10.774Z,1.00
2018-11-20T06:36:34.706Z,1.00
2018-11-20T06:43:27.001Z,1.10
2018-11-20T06:50:33.784Z,1.10
2018-11-20T06:53:19.694Z,1.10
2018-11-20T06:56:43.822Z,1.00
2018-11-20T07:03:32.417Z,1.10
2018-11-20T07:10:33.092Z,1.10
2018-11-20T07:17:20.950Z,1.20
2018-11-20T07:24:13.289Z,1.20
2018-11-20T07:31:08.357Z,1.20
2018-11-20T07:33:59.662Z,1.20
2018-11-20T07:41:01.657Z,1.30
2018-11-20T07:47:55.606Z,1.50
2018-11-20T07:50:50.171Z,1.40
2018-11-20T07:57:43.342Z,1.50
2018-11-20T08:00:44.518Z,1.50
2018-11-20T08:04:08.629Z,1.60
2018-11-20T08:11:07.710Z,1.70
2018-11-20T08:17:58.888Z,1.60
2018-11-20T08:24:54.678Z,1.60
2018-11-20T08:31:38.486Z,1.70
2018-11-20T08:38:42.954Z,1.80
2018-11-20T08:45:44.903Z,1.70
2018-11-20T08:49:09.216Z,1.90
2018-11-20T08:56:11.198Z,2.00
2018-11-20T09:02:53.823Z,2.10
2018-11-20T09:09:44.410Z,2.10
2018-11-20T09:16:33.486Z,2.20
2018-11-20T09:19:21.235Z,2.30
2018-11-20T09:22:19.804Z,2.30
2018-11-20T09:29:09.895Z,2.30
2018-11-20T09:36:03.226Z,2.30
2018-11-20T09:39:27.286Z,2.30
2018-11-20T09:46:15.867Z,2.20
2018-11-20T09:53:04.671Z,2.20
2018-11-20T09:59:54.770Z,2.30
2018-11-20T10:02:31.877Z,2.50
2018-11-20T10:09:17.723Z,2.50
2018-11-20T10:16:06.204Z,2.60
2018-11-20T10:18:57.734Z,2.80
2018-11-20T10:25:54.060Z,3.00
2018-11-20T10:32:41.746Z,3.10
2018-11-20T10:39:31.590Z,3.00
2018-11-20T10:46:10.888Z,2.90
2018-11-20T10:49:34.993Z,2.80
2018-11-20T10:56:30.672Z,3.20
2018-11-20T10:59:54.735Z,3.10
2018-11-20T11:06:40.848Z,3.50
2018-11-20T11:13:29.225Z,3.50
2018-11-20T11:20:19.252Z,3.40
2018-11-20T11:27:00.665Z,3.50
2018-11-20T11:33:52.388Z,3.50
2018-11-20T11:40:45.619Z,3.50
2018-11-20T11:47:41.014Z,3.50
2018-11-20T11:51:15.290Z,3.30
2018-11-20T11:58:03.368Z,3.40
2018-11-20T12:05:05.939Z,3.70
2018-11-20T12:11:56.031Z,4.00
2018-11-20T12:15:22.697Z,3.90
2018-11-20T12:22:24.520Z,3.70
2018-11-20T12:29:34.743Z,3.40
2018-11-20T12:36:23.592Z,3.40
2018-11-20T12:43:18.251Z,3.40
2018-11-20T12:50:10.646Z,3.50
2018-11-20T12:53:32.497Z,3.60
2018-11-20T13:00:40.298Z,3.70
2018-11-20T13:07:28.208Z,3.70
2018-11-20T13:14:17.667Z,3.50
2018-11-20T13:21:16.292Z,3.50
2018-11-20T13:24:03.932Z,3.40
2018-11-20T13:30:52.983Z,3.40
2018-11-20T13:33:40.253Z,3.40
2018-11-20T13:41:13.202Z,3.20
2018-11-20T13:48:12.505Z,3.20
2018-11-20T13:50:48.085Z,3.10
2018-11-20T13:54:11.999Z,3.00
2018-11-20T14:01:02.685Z,3.00
2018-11-20T14:04:29.160Z,2.90
2018-11-20T14:11:24.031Z,2.90
2018-11-20T14:14:15.448Z,2.90
2018-11-20T14:21:03.236Z,2.80
2018-11-20T14:23:58.238Z,2.80
2018-11-20T14:31:00.089Z,2.90
2018-11-20T14:34:24.338Z,2.90
2018-11-20T14:41:15.303Z,2.90
2018-11-20T14:44:36.672Z,2.90
2018-11-20T14:51:29.441Z,2.70
2018-11-20T14:54:21.392Z,2.70
2018-11-20T15:01:17.166Z,2.70
2018-11-20T15:08:05.387Z,2.60
2018-11-20T15:15:01.364Z,2.60
2018-11-20T15:18:31.649Z,2.50
2018-11-20T15:25:12.312Z,2.20
2018-11-20T15:32:03.061Z,2.20
2018-11-20T15:35:24.413Z,2.30
2018-11-20T15:42:12.145Z,2.20
2018-11-20T15:49:09.545Z,2.30
2018-11-20T15:56:05.819Z,2.30
2018-11-20T15:59:32.410Z,2.30
2018-11-20T16:06:33.479Z,2.30
2018-11-20T16:09:55.051Z,2.20
2018-11-20T16:16:46.113Z,2.00
2018-11-20T16:23:24.378Z,1.90
2018-11-20T16:26:15.959Z,1.70
2018-11-20T16:29:04.770Z,1.60
2018-11-20T16:31:52.406Z,1.50
2018-11-20T16:38:45.043Z,1.30
2018-11-20T16:45:35.016Z,1.10
2018-11-20T16:48:59.217Z,1.00
2018-11-20T16:55:58.350Z,0.80
2018-11-20T17:02:48.865Z,0.70
2018-11-20T17:06:32.889Z,0.50
2018-11-20T17:13:34.401Z,0.40
2018-11-20T17:16:58.581Z,0.30
2018-11-20T17:24:03.749Z,0.30
2018-11-20T17:26:54.134Z,0.30
2018-11-20T17:33:45.057Z,0.20
2018-11-20T17:41:07.400Z,0.10
2018-11-20T17:47:55.363Z,0.10
2018-11-20T17:51:19.219Z,0.10
2018-11-20T17:58:08.655Z,-0.10
2018-11-20T18:05:09.810Z,-0.20
2018-11-20T18:08:34.352Z,-0.30
2018-11-20T18:15:43.236Z,-0.30
2018-11-20T18:22:32.914Z,-0.30
2018-11-20T18:26:05.616Z,-0.30
2018-11-20T18:32:52.991Z,-0.30
2018-11-20T18:39:37.858Z,-0.30
2018-11-20T18:43:01.695Z,-0.30
2018-11-20T18:50:00.351Z,-0.30
2018-11-20T18:56:58.415Z,-0.30
2018-11-20T19:04:00.519Z,-0.50
2018-11-20T19:10:51.732Z,-0.70
2018-11-20T19:17:47.960Z,-0.50
2018-11-20T19:20:35.614Z,-0.70
2018-11-20T19:23:39.667Z,-0.60
2018-11-20T19:30:28.692Z,-0.40
2018-11-20T19:37:14.849Z,-0.30
2018-11-20T19:44:03.179Z,-0.30
2018-11-20T19:50:57.805Z,-0.40
2018-11-20T19:57:39.213Z,-0.20
2018-11-20T20:04:38.136Z,-0.50
2018-11-20T20:08:02.348Z,-0.40
2018-11-20T20:14:51.949Z,-0.40
2018-11-20T20:18:16.425Z,-0.50
2018-11-20T20:25:18.679Z,-0.60
2018-11-20T20:32:06.074Z,-0.50
2018-11-20T20:38:54.167Z,-0.60
2018-11-20T20:42:20.882Z,-0.60
2018-11-20T20:49:02.144Z,-0.80
2018-11-20T20:52:26.362Z,-0.80
2018-11-20T20:59:26.537Z,-0.90
2018-11-20T21:06:15.072Z,-0.80
2018-11-20T21:13:23.450Z,-0.90
2018-11-20T21:20:14.250Z,-1.00
2018-11-20T21:27:00.428Z,-0.80
2018-11-20T21:33:52.861Z,-0.80
2018-11-20T21:40:42.089Z,-0.80
2018-11-20T21:43:35.528Z,-0.80
2018-11-20T21:50:24.831Z,-0.70
2018-11-20T21:57:06.811Z,-0.60
2018-11-20T22:00:31.217Z,-0.60
2018-11-20T22:07:17.693Z,-0.50
2018-11-20T22:14:05.179Z,-0.30
2018-11-20T22:17:29.293Z,-0.10
2018-11-20T22:24:17.631Z,-0.10
2018-11-20T22:31:00.759Z,0.00
2018-11-20T22:37:57.046Z,0.20
2018-11-20T22:44:46.581Z,0.40
2018-11-20T22:47:44.296Z,0.50
2018-11-20T22:51:08.498Z,0.50
2018-11-20T22:57:56.544Z,0.60
2018-11-20T23:04:57.394Z,0.80
2018-11-20T23:11:28.168Z,1.00
2018-11-20T23:14:54.705Z,1.10
2018-11-20T23:21:22.926Z,1.10
2018-11-20T23:27:53.878Z,1.10
2018-11-20T23:34:24.405Z,1.20
2018-11-20T23:40:55.392Z,1.20
2018-11-20T23:47:26.512Z,1.20
2018-11-20T23:53:57.924Z,1.00
